Allensworth, California
Current Conditions -  °F | °C
As of 1:15 AM on Monday 22 Dec 2014 (Local Time) from KPTV Reporting Station
Overcast Overcast  
Wind Chill: 13°   Ceiling: 4700
Heat Index: 13°   Visibility: 5mi
Dew Point: 11°   Wind: 0mph
Humidity: 88%   Direction: NA
Pressure: 30.26"   Gusts: NA
Location:  35.856°N, 119.335°W
Report Text: KPTV 220915Z AUTO 00000KT 5SM SCT035 OVC047 13/11 A3026 RMK AO1
Loading
Personal Weather Stations






























Interactive Weather Map New forecast layout! Learn more

10-Day Weather Forecast

Advertisements
Track Severe Weather on mobile